sensor_id;sensor_type;location;lat;lon;timestamp;P1;durP1;ratioP1;P2;durP2;ratioP2
1957;SDS011;979;51.076;13.748;2023-02-24T00:00:48;70.97;;;49.10;;
1957;SDS011;979;51.076;13.748;2023-02-24T00:03:18;78.40;;;52.83;;
1957;SDS011;979;51.076;13.748;2023-02-24T00:05:49;90.33;;;53.60;;
1957;SDS011;979;51.076;13.748;2023-02-24T00:08:17;86.37;;;54.57;;
1957;SDS011;979;51.076;13.748;2023-02-24T00:10:46;85.67;;;54.57;;
1957;SDS011;979;51.076;13.748;2023-02-24T00:13:15;76.40;;;52.83;;
1957;SDS011;979;51.076;13.748;2023-02-24T00:15:57;73.00;;;52.70;;
1957;SDS011;979;51.076;13.748;2023-02-24T00:18:27;78.10;;;53.93;;
1957;SDS011;979;51.076;13.748;2023-02-24T00:20:56;73.77;;;53.27;;
1957;SDS011;979;51.076;13.748;2023-02-24T00:23:31;74.70;;;53.77;;
1957;SDS011;979;51.076;13.748;2023-02-24T00:26:01;78.10;;;51.90;;
1957;SDS011;979;51.076;13.748;2023-02-24T00:28:32;71.90;;;49.17;;
1957;SDS011;979;51.076;13.748;2023-02-24T00:31:01;75.17;;;52.63;;
1957;SDS011;979;51.076;13.748;2023-02-24T00:33:31;77.33;;;53.27;;
1957;SDS011;979;51.076;13.748;2023-02-24T00:36:07;68.17;;;49.43;;
1957;SDS011;979;51.076;13.748;2023-02-24T00:38:37;75.90;;;52.60;;
1957;SDS011;979;51.076;13.748;2023-02-24T00:41:09;68.37;;;48.43;;
1957;SDS011;979;51.076;13.748;2023-02-24T00:43:39;75.77;;;52.07;;
1957;SDS011;979;51.076;13.748;2023-02-24T00:46:13;72.70;;;51.23;;
1957;SDS011;979;51.076;13.748;2023-02-24T00:48:45;75.23;;;48.30;;
1957;SDS011;979;51.076;13.748;2023-02-24T00:51:17;80.70;;;50.53;;
1957;SDS011;979;51.076;13.748;2023-02-24T00:53:49;81.07;;;52.70;;
1957;SDS011;979;51.076;13.748;2023-02-24T00:56:21;75.63;;;51.27;;
1957;SDS011;979;51.076;13.748;2023-02-24T00:58:51;75.20;;;49.00;;
1957;SDS011;979;51.076;13.748;2023-02-24T01:01:20;75.63;;;51.37;;
1957;SDS011;979;51.076;13.748;2023-02-24T01:03:50;70.13;;;49.73;;
1957;SDS011;979;51.076;13.748;2023-02-24T01:06:23;72.33;;;47.07;;
1957;SDS011;979;51.076;13.748;2023-02-24T01:08:54;67.03;;;46.60;;
1957;SDS011;979;51.076;13.748;2023-02-24T01:11:24;65.90;;;44.33;;
1957;SDS011;979;51.076;13.748;2023-02-24T01:18:37;62.17;;;42.10;;
1957;SDS011;979;51.076;13.748;2023-02-24T01:22:52;59.97;;;43.80;;
1957;SDS011;979;51.076;13.748;2023-02-24T01:25:47;58.00;;;40.40;;
1957;SDS011;979;51.076;13.748;2023-02-24T01:28:26;56.83;;;40.30;;
1957;SDS011;979;51.076;13.748;2023-02-24T01:30:59;56.60;;;42.00;;
1957;SDS011;979;51.076;13.748;2023-02-24T01:33:31;41.97;;;34.97;;
1957;SDS011;979;51.076;13.748;2023-02-24T01:36:09;61.80;;;41.50;;
1957;SDS011;979;51.076;13.748;2023-02-24T01:38:43;55.47;;;42.90;;
1957;SDS011;979;51.076;13.748;2023-02-24T01:41:16;53.40;;;40.60;;
1957;SDS011;979;51.076;13.748;2023-02-24T01:43:53;45.10;;;38.87;;
1957;SDS011;979;51.076;13.748;2023-02-24T01:50:51;49.07;;;37.73;;
1957;SDS011;979;51.076;13.748;2023-02-24T01:53:21;53.47;;;39.30;;
1957;SDS011;979;51.076;13.748;2023-02-24T01:55:51;48.63;;;37.00;;
1957;SDS011;979;51.076;13.748;2023-02-24T01:58:21;48.27;;;37.83;;
1957;SDS011;979;51.076;13.748;2023-02-24T02:00:53;40.50;;;35.97;;
1957;SDS011;979;51.076;13.748;2023-02-24T02:03:26;42.50;;;36.77;;
1957;SDS011;979;51.076;13.748;2023-02-24T02:05:58;42.03;;;35.93;;
1957;SDS011;979;51.076;13.748;2023-02-24T02:08:31;40.00;;;35.70;;
1957;SDS011;979;51.076;13.748;2023-02-24T02:11:04;33.67;;;30.33;;
1957;SDS011;979;51.076;13.748;2023-02-24T02:13:34;40.83;;;35.40;;
1957;SDS011;979;51.076;13.748;2023-02-24T02:16:08;38.10;;;34.20;;
1957;SDS011;979;51.076;13.748;2023-02-24T02:18:49;36.77;;;32.80;;
1957;SDS011;979;51.076;13.748;2023-02-24T02:24:36;34.20;;;30.90;;
1957;SDS011;979;51.076;13.748;2023-02-24T02:27:29;35.50;;;32.00;;
1957;SDS011;979;51.076;13.748;2023-02-24T02:30:22;35.90;;;32.47;;
1957;SDS011;979;51.076;13.748;2023-02-24T02:36:32;32.30;;;29.20;;
1957;SDS011;979;51.076;13.748;2023-02-24T02:39:10;34.77;;;31.50;;
1957;SDS011;979;51.076;13.748;2023-02-24T02:41:51;34.23;;;30.83;;
1957;SDS011;979;51.076;13.748;2023-02-24T02:44:36;34.17;;;30.97;;
1957;SDS011;979;51.076;13.748;2023-02-24T02:47:21;34.57;;;30.97;;
1957;SDS011;979;51.076;13.748;2023-02-24T02:49:56;34.17;;;30.67;;
1957;SDS011;979;51.076;13.748;2023-02-24T02:52:28;33.40;;;30.03;;
1957;SDS011;979;51.076;13.748;2023-02-24T02:55:04;32.93;;;29.87;;
1957;SDS011;979;51.076;13.748;2023-02-24T02:57:37;31.20;;;28.30;;
1957;SDS011;979;51.076;13.748;2023-02-24T03:00:14;32.70;;;29.80;;
1957;SDS011;979;51.076;13.748;2023-02-24T03:02:51;33.47;;;30.13;;
1957;SDS011;979;51.076;13.748;2023-02-24T03:06:02;34.17;;;30.80;;
1957;SDS011;979;51.076;13.748;2023-02-24T03:08:33;32.70;;;29.50;;
1957;SDS011;979;51.076;13.748;2023-02-24T03:11:06;33.20;;;29.93;;
1957;SDS011;979;51.076;13.748;2023-02-24T03:13:40;34.33;;;30.90;;
1957;SDS011;979;51.076;13.748;2023-02-24T03:16:12;30.00;;;27.40;;
1957;SDS011;979;51.076;13.748;2023-02-24T03:18:44;27.70;;;25.50;;
1957;SDS011;979;51.076;13.748;2023-02-24T03:21:22;27.50;;;25.13;;
1957;SDS011;979;51.076;13.748;2023-02-24T03:23:59;28.13;;;25.67;;
1957;SDS011;979;51.076;13.748;2023-02-24T03:26:55;26.40;;;23.90;;
1957;SDS011;979;51.076;13.748;2023-02-24T03:29:45;27.00;;;24.67;;
1957;SDS011;979;51.076;13.748;2023-02-24T03:32:39;26.83;;;24.63;;
1957;SDS011;979;51.076;13.748;2023-02-24T03:35:52;28.00;;;25.40;;
1957;SDS011;979;51.076;13.748;2023-02-24T03:38:31;26.87;;;24.43;;
1957;SDS011;979;51.076;13.748;2023-02-24T03:41:04;27.83;;;25.50;;
1957;SDS011;979;51.076;13.748;2023-02-24T03:43:38;29.37;;;26.70;;
1957;SDS011;979;51.076;13.748;2023-02-24T03:46:11;27.47;;;24.57;;
1957;SDS011;979;51.076;13.748;2023-02-24T03:48:43;28.53;;;25.77;;
1957;SDS011;979;51.076;13.748;2023-02-24T03:51:17;27.83;;;25.50;;
1957;SDS011;979;51.076;13.748;2023-02-24T03:53:57;25.90;;;23.53;;
1957;SDS011;979;51.076;13.748;2023-02-24T03:56:44;27.00;;;24.77;;
1957;SDS011;979;51.076;13.748;2023-02-24T03:59:25;26.60;;;24.10;;
1957;SDS011;979;51.076;13.748;2023-02-24T04:02:02;27.43;;;25.23;;
1957;SDS011;979;51.076;13.748;2023-02-24T04:04:43;26.87;;;24.67;;
1957;SDS011;979;51.076;13.748;2023-02-24T04:07:27;26.43;;;24.23;;
1957;SDS011;979;51.076;13.748;2023-02-24T04:10:07;27.53;;;25.17;;
1957;SDS011;979;51.076;13.748;2023-02-24T04:12:46;26.70;;;24.20;;
1957;SDS011;979;51.076;13.748;2023-02-24T04:15:24;25.70;;;23.60;;
1957;SDS011;979;51.076;13.748;2023-02-24T04:17:57;25.57;;;23.50;;
1957;SDS011;979;51.076;13.748;2023-02-24T04:20:33;27.87;;;25.67;;
1957;SDS011;979;51.076;13.748;2023-02-24T04:23:07;30.13;;;27.00;;
1957;SDS011;979;51.076;13.748;2023-02-24T04:25:46;27.80;;;25.30;;
1957;SDS011;979;51.076;13.748;2023-02-24T04:28:17;27.37;;;25.27;;
1957;SDS011;979;51.076;13.748;2023-02-24T04:30:49;29.70;;;27.03;;
1957;SDS011;979;51.076;13.748;2023-02-24T04:33:21;27.80;;;25.40;;
1957;SDS011;979;51.076;13.748;2023-02-24T04:35:50;28.63;;;25.83;;
1957;SDS011;979;51.076;13.748;2023-02-24T04:38:21;27.80;;;25.67;;
1957;SDS011;979;51.076;13.748;2023-02-24T04:40:51;29.30;;;26.87;;
1957;SDS011;979;51.076;13.748;2023-02-24T04:43:20;30.87;;;28.00;;
1957;SDS011;979;51.076;13.748;2023-02-24T04:45:49;27.97;;;24.90;;
1957;SDS011;979;51.076;13.748;2023-02-24T04:48:18;28.33;;;25.73;;
1957;SDS011;979;51.076;13.748;2023-02-24T04:50:48;27.40;;;25.20;;
1957;SDS011;979;51.076;13.748;2023-02-24T04:53:20;30.53;;;27.87;;
1957;SDS011;979;51.076;13.748;2023-02-24T04:58:57;30.40;;;27.70;;
1957;SDS011;979;51.076;13.748;2023-02-24T05:01:25;29.07;;;26.10;;
1957;SDS011;979;51.076;13.748;2023-02-24T05:03:54;27.43;;;25.07;;
1957;SDS011;979;51.076;13.748;2023-02-24T05:06:45;28.07;;;24.87;;
1957;SDS011;979;51.076;13.748;2023-02-24T05:09:28;29.53;;;26.57;;
1957;SDS011;979;51.076;13.748;2023-02-24T05:16:31;27.00;;;24.30;;
1957;SDS011;979;51.076;13.748;2023-02-24T05:19:00;25.80;;;23.40;;
1957;SDS011;979;51.076;13.748;2023-02-24T05:22:07;33.33;;;25.87;;
1957;SDS011;979;51.076;13.748;2023-02-24T05:24:39;28.40;;;25.60;;
1957;SDS011;979;51.076;13.748;2023-02-24T05:27:10;28.60;;;25.60;;
1957;SDS011;979;51.076;13.748;2023-02-24T05:29:40;28.40;;;25.37;;
1957;SDS011;979;51.076;13.748;2023-02-24T05:32:10;29.80;;;25.77;;
1957;SDS011;979;51.076;13.748;2023-02-24T05:34:44;27.00;;;24.33;;
1957;SDS011;979;51.076;13.748;2023-02-24T05:38:18;22.80;;;21.00;;
1957;SDS011;979;51.076;13.748;2023-02-24T05:40:25;23.17;;;21.50;;
1957;SDS011;979;51.076;13.748;2023-02-24T05:42:54;21.67;;;20.13;;
1957;SDS011;979;51.076;13.748;2023-02-24T05:45:43;22.53;;;20.77;;
1957;SDS011;979;51.076;13.748;2023-02-24T05:48:13;21.43;;;20.23;;
1957;SDS011;979;51.076;13.748;2023-02-24T05:53:33;20.70;;;19.40;;
1957;SDS011;979;51.076;13.748;2023-02-24T05:56:06;20.17;;;18.60;;
1957;SDS011;979;51.076;13.748;2023-02-24T05:58:35;21.93;;;20.30;;
1957;SDS011;979;51.076;13.748;2023-02-24T06:04:08;21.23;;;19.87;;
1957;SDS011;979;51.076;13.748;2023-02-24T06:06:47;21.40;;;20.20;;
1957;SDS011;979;51.076;13.748;2023-02-24T06:09:18;22.83;;;21.43;;
1957;SDS011;979;51.076;13.748;2023-02-24T06:11:48;20.70;;;19.43;;
1957;SDS011;979;51.076;13.748;2023-02-24T06:14:17;20.37;;;19.23;;
1957;SDS011;979;51.076;13.748;2023-02-24T06:16:46;18.87;;;18.07;;
1957;SDS011;979;51.076;13.748;2023-02-24T06:19:17;19.47;;;18.47;;
1957;SDS011;979;51.076;13.748;2023-02-24T06:21:46;19.67;;;18.67;;
1957;SDS011;979;51.076;13.748;2023-02-24T06:24:20;20.40;;;19.40;;
1957;SDS011;979;51.076;13.748;2023-02-24T06:26:49;19.90;;;18.90;;
1957;SDS011;979;51.076;13.748;2023-02-24T06:29:19;20.13;;;19.13;;
1957;SDS011;979;51.076;13.748;2023-02-24T06:31:50;19.13;;;18.23;;
1957;SDS011;979;51.076;13.748;2023-02-24T06:37:14;19.77;;;18.60;;
1957;SDS011;979;51.076;13.748;2023-02-24T06:39:45;18.67;;;17.87;;
1957;SDS011;979;51.076;13.748;2023-02-24T06:42:13;19.33;;;18.20;;
1957;SDS011;979;51.076;13.748;2023-02-24T06:44:42;18.17;;;17.37;;
1957;SDS011;979;51.076;13.748;2023-02-24T06:47:13;20.30;;;19.00;;
1957;SDS011;979;51.076;13.748;2023-02-24T06:49:43;19.70;;;18.67;;
1957;SDS011;979;51.076;13.748;2023-02-24T06:53:06;19.40;;;18.30;;
1957;SDS011;979;51.076;13.748;2023-02-24T06:55:44;18.97;;;17.90;;
1957;SDS011;979;51.076;13.748;2023-02-24T06:59:04;20.27;;;18.97;;
1957;SDS011;979;51.076;13.748;2023-02-24T07:02:15;20.37;;;18.90;;
1957;SDS011;979;51.076;13.748;2023-02-24T07:08:57;19.60;;;18.10;;
1957;SDS011;979;51.076;13.748;2023-02-24T07:11:39;18.60;;;17.83;;
1957;SDS011;979;51.076;13.748;2023-02-24T07:14:26;21.53;;;20.20;;
1957;SDS011;979;51.076;13.748;2023-02-24T07:17:05;21.50;;;20.37;;
1957;SDS011;979;51.076;13.748;2023-02-24T07:19:34;19.00;;;18.20;;
1957;SDS011;979;51.076;13.748;2023-02-24T07:22:03;19.10;;;18.20;;
1957;SDS011;979;51.076;13.748;2023-02-24T07:24:46;18.30;;;17.03;;
1957;SDS011;979;51.076;13.748;2023-02-24T07:27:15;19.23;;;17.87;;
1957;SDS011;979;51.076;13.748;2023-02-24T07:29:50;17.93;;;16.90;;
1957;SDS011;979;51.076;13.748;2023-02-24T07:32:23;19.00;;;18.00;;
1957;SDS011;979;51.076;13.748;2023-02-24T07:34:54;19.10;;;18.10;;
1957;SDS011;979;51.076;13.748;2023-02-24T07:37:25;20.63;;;18.93;;
1957;SDS011;979;51.076;13.748;2023-02-24T07:43:13;19.03;;;17.60;;
1957;SDS011;979;51.076;13.748;2023-02-24T07:45:44;18.57;;;17.30;;
1957;SDS011;979;51.076;13.748;2023-02-24T07:48:21;22.93;;;18.70;;
1957;SDS011;979;51.076;13.748;2023-02-24T07:50:56;18.00;;;17.20;;
1957;SDS011;979;51.076;13.748;2023-02-24T07:53:27;18.70;;;17.47;;
1957;SDS011;979;51.076;13.748;2023-02-24T07:56:18;20.57;;;18.77;;
1957;SDS011;979;51.076;13.748;2023-02-24T07:58:57;19.17;;;17.70;;
1957;SDS011;979;51.076;13.748;2023-02-24T08:01:29;18.20;;;17.07;;
1957;SDS011;979;51.076;13.748;2023-02-24T08:04:05;17.63;;;16.57;;
1957;SDS011;979;51.076;13.748;2023-02-24T08:06:48;17.70;;;17.10;;
1957;SDS011;979;51.076;13.748;2023-02-24T08:13:20;18.07;;;17.23;;
1957;SDS011;979;51.076;13.748;2023-02-24T08:16:24;19.50;;;18.27;;
1957;SDS011;979;51.076;13.748;2023-02-24T08:19:08;18.93;;;18.10;;
1957;SDS011;979;51.076;13.748;2023-02-24T08:21:47;19.37;;;18.10;;
1957;SDS011;979;51.076;13.748;2023-02-24T08:24:18;20.13;;;18.97;;
1957;SDS011;979;51.076;13.748;2023-02-24T08:26:54;19.57;;;18.37;;
1957;SDS011;979;51.076;13.748;2023-02-24T08:32:50;19.93;;;18.80;;
1957;SDS011;979;51.076;13.748;2023-02-24T08:35:33;20.40;;;19.40;;
1957;SDS011;979;51.076;13.748;2023-02-24T08:38:23;21.43;;;20.07;;
1957;SDS011;979;51.076;13.748;2023-02-24T08:41:18;19.53;;;18.10;;
1957;SDS011;979;51.076;13.748;2023-02-24T08:44:20;19.80;;;18.57;;
1957;SDS011;979;51.076;13.748;2023-02-24T08:50:20;19.67;;;18.37;;
1957;SDS011;979;51.076;13.748;2023-02-24T08:52:54;18.90;;;17.80;;
1957;SDS011;979;51.076;13.748;2023-02-24T08:55:26;18.20;;;17.30;;
1957;SDS011;979;51.076;13.748;2023-02-24T08:57:58;19.10;;;17.97;;
1957;SDS011;979;51.076;13.748;2023-02-24T09:00:59;18.87;;;17.40;;
1957;SDS011;979;51.076;13.748;2023-02-24T09:03:45;19.80;;;18.00;;
1957;SDS011;979;51.076;13.748;2023-02-24T09:06:18;18.20;;;17.30;;
1957;SDS011;979;51.076;13.748;2023-02-24T09:08:53;19.33;;;17.90;;
1957;SDS011;979;51.076;13.748;2023-02-24T09:11:40;19.13;;;17.70;;
1957;SDS011;979;51.076;13.748;2023-02-24T09:14:25;19.40;;;17.80;;
1957;SDS011;979;51.076;13.748;2023-02-24T09:17:11;19.70;;;18.60;;
1957;SDS011;979;51.076;13.748;2023-02-24T09:19:48;18.40;;;17.07;;
1957;SDS011;979;51.076;13.748;2023-02-24T09:22:48;19.03;;;17.70;;
1957;SDS011;979;51.076;13.748;2023-02-24T09:25:29;18.77;;;17.87;;
1957;SDS011;979;51.076;13.748;2023-02-24T09:28:10;18.20;;;17.10;;
1957;SDS011;979;51.076;13.748;2023-02-24T09:30:44;22.73;;;17.90;;
1957;SDS011;979;51.076;13.748;2023-02-24T09:33:46;18.87;;;17.67;;
1957;SDS011;979;51.076;13.748;2023-02-24T09:36:17;18.60;;;17.60;;
1957;SDS011;979;51.076;13.748;2023-02-24T09:39:07;17.03;;;16.33;;
1957;SDS011;979;51.076;13.748;2023-02-24T09:41:53;19.50;;;18.13;;
1957;SDS011;979;51.076;13.748;2023-02-24T09:45:04;19.57;;;18.23;;
1957;SDS011;979;51.076;13.748;2023-02-24T09:47:43;24.87;;;19.80;;
1957;SDS011;979;51.076;13.748;2023-02-24T09:50:33;21.30;;;19.50;;
1957;SDS011;979;51.076;13.748;2023-02-24T09:53:44;21.20;;;19.90;;
1957;SDS011;979;51.076;13.748;2023-02-24T09:57:11;20.03;;;18.80;;
1957;SDS011;979;51.076;13.748;2023-02-24T10:04:51;22.30;;;20.30;;
1957;SDS011;979;51.076;13.748;2023-02-24T10:06:57;18.80;;;17.90;;
1957;SDS011;979;51.076;13.748;2023-02-24T10:09:33;20.53;;;19.33;;
1957;SDS011;979;51.076;13.748;2023-02-24T10:12:06;19.77;;;18.77;;
1957;SDS011;979;51.076;13.748;2023-02-24T10:14:46;21.80;;;20.50;;
1957;SDS011;979;51.076;13.748;2023-02-24T10:17:26;19.10;;;18.10;;
1957;SDS011;979;51.076;13.748;2023-02-24T10:20:10;20.70;;;19.10;;
1957;SDS011;979;51.076;13.748;2023-02-24T10:22:59;19.77;;;18.70;;
1957;SDS011;979;51.076;13.748;2023-02-24T10:25:41;19.10;;;18.13;;
1957;SDS011;979;51.076;13.748;2023-02-24T10:28:23;22.87;;;20.93;;
1957;SDS011;979;51.076;13.748;2023-02-24T10:31:03;20.37;;;19.10;;
1957;SDS011;979;51.076;13.748;2023-02-24T10:33:51;21.50;;;19.57;;
1957;SDS011;979;51.076;13.748;2023-02-24T10:36:23;20.40;;;19.07;;
1957;SDS011;979;51.076;13.748;2023-02-24T10:39:08;19.93;;;18.73;;
1957;SDS011;979;51.076;13.748;2023-02-24T10:41:43;20.20;;;18.93;;
1957;SDS011;979;51.076;13.748;2023-02-24T10:44:18;20.20;;;18.90;;
1957;SDS011;979;51.076;13.748;2023-02-24T10:47:00;21.20;;;19.67;;
1957;SDS011;979;51.076;13.748;2023-02-24T10:49:38;21.57;;;20.10;;
1957;SDS011;979;51.076;13.748;2023-02-24T10:52:23;22.60;;;20.80;;
1957;SDS011;979;51.076;13.748;2023-02-24T10:55:21;21.33;;;20.20;;
1957;SDS011;979;51.076;13.748;2023-02-24T10:58:05;24.50;;;22.80;;
1957;SDS011;979;51.076;13.748;2023-02-24T11:00:47;20.10;;;19.10;;
1957;SDS011;979;51.076;13.748;2023-02-24T11:03:45;21.13;;;19.60;;
1957;SDS011;979;51.076;13.748;2023-02-24T11:06:28;20.90;;;19.53;;
1957;SDS011;979;51.076;13.748;2023-02-24T11:09:29;20.17;;;19.13;;
1957;SDS011;979;51.076;13.748;2023-02-24T11:15:37;20.47;;;19.57;;
1957;SDS011;979;51.076;13.748;2023-02-24T11:18:32;23.03;;;21.60;;
1957;SDS011;979;51.076;13.748;2023-02-24T11:21:08;20.70;;;19.40;;
1957;SDS011;979;51.076;13.748;2023-02-24T11:23:48;21.17;;;19.97;;
1957;SDS011;979;51.076;13.748;2023-02-24T11:26:26;22.67;;;21.17;;
1957;SDS011;979;51.076;13.748;2023-02-24T11:29:15;22.10;;;20.90;;
1957;SDS011;979;51.076;13.748;2023-02-24T11:32:03;21.97;;;20.53;;
1957;SDS011;979;51.076;13.748;2023-02-24T11:34:44;21.30;;;20.00;;
1957;SDS011;979;51.076;13.748;2023-02-24T11:41:33;20.87;;;19.67;;
1957;SDS011;979;51.076;13.748;2023-02-24T11:45:00;19.70;;;18.60;;
1957;SDS011;979;51.076;13.748;2023-02-24T11:47:48;21.20;;;20.00;;
1957;SDS011;979;51.076;13.748;2023-02-24T11:51:01;22.10;;;20.90;;
1957;SDS011;979;51.076;13.748;2023-02-24T11:54:09;20.90;;;19.70;;
1957;SDS011;979;51.076;13.748;2023-02-24T11:57:22;19.10;;;17.90;;
1957;SDS011;979;51.076;13.748;2023-02-24T12:01:00;20.43;;;19.17;;
1957;SDS011;979;51.076;13.748;2023-02-24T12:06:24;21.03;;;19.77;;
1957;SDS011;979;51.076;13.748;2023-02-24T12:08:11;19.80;;;18.80;;
1957;SDS011;979;51.076;13.748;2023-02-24T12:11:41;20.00;;;19.00;;
1957;SDS011;979;51.076;13.748;2023-02-24T12:14:44;19.97;;;18.87;;
1957;SDS011;979;51.076;13.748;2023-02-24T12:18:30;20.93;;;19.43;;
1957;SDS011;979;51.076;13.748;2023-02-24T12:21:32;20.47;;;19.37;;
1957;SDS011;979;51.076;13.748;2023-02-24T12:24:48;20.47;;;19.27;;
1957;SDS011;979;51.076;13.748;2023-02-24T12:27:52;20.73;;;19.40;;
1957;SDS011;979;51.076;13.748;2023-02-24T12:31:05;21.17;;;19.97;;
1957;SDS011;979;51.076;13.748;2023-02-24T12:34:16;20.63;;;19.37;;
1957;SDS011;979;51.076;13.748;2023-02-24T12:37:25;20.00;;;18.70;;
1957;SDS011;979;51.076;13.748;2023-02-24T12:40:27;21.30;;;19.57;;
1957;SDS011;979;51.076;13.748;2023-02-24T12:43:14;20.50;;;19.40;;
1957;SDS011;979;51.076;13.748;2023-02-24T12:46:24;20.40;;;19.20;;
1957;SDS011;979;51.076;13.748;2023-02-24T12:53:16;20.87;;;19.70;;
1957;SDS011;979;51.076;13.748;2023-02-24T12:56:16;21.30;;;20.10;;
1957;SDS011;979;51.076;13.748;2023-02-24T12:59:19;20.60;;;19.13;;
1957;SDS011;979;51.076;13.748;2023-02-24T13:02:27;19.73;;;18.43;;
1957;SDS011;979;51.076;13.748;2023-02-24T13:05:33;20.73;;;19.33;;
1957;SDS011;979;51.076;13.748;2023-02-24T13:12:16;22.27;;;20.53;;
1957;SDS011;979;51.076;13.748;2023-02-24T13:15:21;22.13;;;20.73;;
1957;SDS011;979;51.076;13.748;2023-02-24T13:18:38;22.27;;;20.87;;
1957;SDS011;979;51.076;13.748;2023-02-24T13:22:07;21.30;;;20.10;;
1957;SDS011;979;51.076;13.748;2023-02-24T13:26:26;23.67;;;21.70;;
1957;SDS011;979;51.076;13.748;2023-02-24T13:29:53;23.37;;;21.67;;
1957;SDS011;979;51.076;13.748;2023-02-24T16:09:36;17.90;;;17.10;;
1957;SDS011;979;51.076;13.748;2023-02-24T16:13:23;17.73;;;16.53;;
1957;SDS011;979;51.076;13.748;2023-02-24T16:16:20;18.10;;;17.10;;
1957;SDS011;979;51.076;13.748;2023-02-24T16:19:34;19.43;;;18.27;;
1957;SDS011;979;51.076;13.748;2023-02-24T16:26:16;18.27;;;17.03;;
1957;SDS011;979;51.076;13.748;2023-02-24T17:01:04;18.53;;;17.00;;
1957;SDS011;979;51.076;13.748;2023-02-24T17:05:08;18.73;;;17.43;;
1957;SDS011;979;51.076;13.748;2023-02-24T17:08:33;17.90;;;16.83;;
1957;SDS011;979;51.076;13.748;2023-02-24T17:11:33;18.70;;;17.70;;
1957;SDS011;979;51.076;13.748;2023-02-24T17:14:23;19.67;;;18.57;;
1957;SDS011;979;51.076;13.748;2023-02-24T17:17:24;18.40;;;17.37;;
1957;SDS011;979;51.076;13.748;2023-02-24T17:19:59;20.07;;;18.97;;
1957;SDS011;979;51.076;13.748;2023-02-24T17:22:34;17.40;;;16.70;;
1957;SDS011;979;51.076;13.748;2023-02-24T17:27:24;19.00;;;18.10;;
1957;SDS011;979;51.076;13.748;2023-02-24T17:28:49;19.30;;;18.17;;
1957;SDS011;979;51.076;13.748;2023-02-24T17:31:40;19.83;;;18.67;;
1957;SDS011;979;51.076;13.748;2023-02-24T17:38:24;19.80;;;18.60;;
1957;SDS011;979;51.076;13.748;2023-02-24T17:41:23;20.27;;;19.07;;
1957;SDS011;979;51.076;13.748;2023-02-24T17:44:52;20.40;;;19.40;;
1957;SDS011;979;51.076;13.748;2023-02-24T17:54:53;19.43;;;18.27;;
1957;SDS011;979;51.076;13.748;2023-02-24T18:05:04;19.10;;;17.83;;
1957;SDS011;979;51.076;13.748;2023-02-24T18:08:10;19.60;;;18.30;;
1957;SDS011;979;51.076;13.748;2023-02-24T18:11:05;19.37;;;18.37;;
1957;SDS011;979;51.076;13.748;2023-02-24T18:14:05;18.57;;;17.67;;
1957;SDS011;979;51.076;13.748;2023-02-24T18:17:28;20.07;;;18.97;;
1957;SDS011;979;51.076;13.748;2023-02-24T18:20:56;19.80;;;18.80;;
1957;SDS011;979;51.076;13.748;2023-02-24T18:24:06;17.17;;;16.40;;
1957;SDS011;979;51.076;13.748;2023-02-24T18:27:07;17.17;;;16.57;;
1957;SDS011;979;51.076;13.748;2023-02-24T18:31:04;20.50;;;19.13;;
1957;SDS011;979;51.076;13.748;2023-02-24T18:34:20;18.73;;;17.93;;
1957;SDS011;979;51.076;13.748;2023-02-24T18:37:59;19.50;;;18.60;;
1957;SDS011;979;51.076;13.748;2023-02-24T18:48:31;19.17;;;18.47;;
1957;SDS011;979;51.076;13.748;2023-02-24T18:51:34;20.13;;;19.23;;
1957;SDS011;979;51.076;13.748;2023-02-24T18:55:11;19.20;;;18.40;;
1957;SDS011;979;51.076;13.748;2023-02-24T19:01:50;19.63;;;18.90;;
1957;SDS011;979;51.076;13.748;2023-02-24T19:05:02;20.27;;;19.27;;
1957;SDS011;979;51.076;13.748;2023-02-24T19:08:13;20.70;;;19.77;;
1957;SDS011;979;51.076;13.748;2023-02-24T19:11:22;19.90;;;19.10;;
1957;SDS011;979;51.076;13.748;2023-02-24T19:14:32;20.53;;;19.73;;
1957;SDS011;979;51.076;13.748;2023-02-24T19:18:04;20.13;;;19.27;;
1957;SDS011;979;51.076;13.748;2023-02-24T19:21:01;21.63;;;20.73;;
1957;SDS011;979;51.076;13.748;2023-02-24T19:35:10;19.90;;;19.00;;
1957;SDS011;979;51.076;13.748;2023-02-24T19:38:34;19.50;;;18.80;;
1957;SDS011;979;51.076;13.748;2023-02-24T19:42:21;21.87;;;20.53;;
1957;SDS011;979;51.076;13.748;2023-02-24T19:45:32;20.70;;;19.80;;
1957;SDS011;979;51.076;13.748;2023-02-24T19:53:52;26.67;;;25.47;;
1957;SDS011;979;51.076;13.748;2023-02-24T19:56:09;26.27;;;25.27;;
1957;SDS011;979;51.076;13.748;2023-02-24T20:00:17;25.83;;;24.73;;
1957;SDS011;979;51.076;13.748;2023-02-24T20:03:18;25.97;;;24.77;;
1957;SDS011;979;51.076;13.748;2023-02-24T20:08:36;24.93;;;23.83;;
1957;SDS011;979;51.076;13.748;2023-02-24T20:18:44;24.20;;;23.03;;
1957;SDS011;979;51.076;13.748;2023-02-24T20:22:36;23.50;;;22.30;;
1957;SDS011;979;51.076;13.748;2023-02-24T20:26:33;24.67;;;23.07;;
1957;SDS011;979;51.076;13.748;2023-02-24T20:38:07;20.90;;;19.90;;
1957;SDS011;979;51.076;13.748;2023-02-24T20:41:03;21.07;;;19.93;;
1957;SDS011;979;51.076;13.748;2023-02-24T20:44:10;17.63;;;17.13;;
1957;SDS011;979;51.076;13.748;2023-02-24T20:47:54;17.33;;;16.83;;
1957;SDS011;979;51.076;13.748;2023-02-24T20:51:28;17.27;;;16.70;;
1957;SDS011;979;51.076;13.748;2023-02-24T20:55:02;16.90;;;16.40;;
1957;SDS011;979;51.076;13.748;2023-02-24T22:29:05;25.63;;;23.20;;
1957;SDS011;979;51.076;13.748;2023-02-24T22:31:50;21.13;;;19.93;;
1957;SDS011;979;51.076;13.748;2023-02-24T22:34:54;22.07;;;20.67;;
1957;SDS011;979;51.076;13.748;2023-02-24T22:38:11;21.67;;;20.13;;
1957;SDS011;979;51.076;13.748;2023-02-24T22:41:10;22.07;;;20.40;;
1957;SDS011;979;51.076;13.748;2023-02-24T22:44:23;23.17;;;21.73;;
1957;SDS011;979;51.076;13.748;2023-02-24T22:47:01;23.73;;;22.03;;
1957;SDS011;979;51.076;13.748;2023-02-24T22:53:12;23.87;;;22.30;;
1957;SDS011;979;51.076;13.748;2023-02-24T22:55:54;21.93;;;20.70;;
1957;SDS011;979;51.076;13.748;2023-02-24T22:59:06;24.57;;;22.87;;
1957;SDS011;979;51.076;13.748;2023-02-24T23:01:54;23.07;;;21.57;;
1957;SDS011;979;51.076;13.748;2023-02-24T23:04:55;23.73;;;22.43;;
1957;SDS011;979;51.076;13.748;2023-02-24T23:07:27;25.13;;;23.43;;
1957;SDS011;979;51.076;13.748;2023-02-24T23:10:10;23.40;;;22.10;;
1957;SDS011;979;51.076;13.748;2023-02-24T23:12:58;23.23;;;21.63;;
1957;SDS011;979;51.076;13.748;2023-02-24T23:15:40;23.17;;;21.57;;
1957;SDS011;979;51.076;13.748;2023-02-24T23:21:59;23.17;;;21.97;;
1957;SDS011;979;51.076;13.748;2023-02-24T23:24:45;22.07;;;20.70;;
1957;SDS011;979;51.076;13.748;2023-02-24T23:27:13;22.77;;;21.07;;
1957;SDS011;979;51.076;13.748;2023-02-24T23:30:03;21.07;;;19.63;;
1957;SDS011;979;51.076;13.748;2023-02-24T23:39:10;23.07;;;21.60;;
1957;SDS011;979;51.076;13.748;2023-02-24T23:42:38;23.30;;;21.80;;
1957;SDS011;979;51.076;13.748;2023-02-24T23:45:45;23.57;;;21.90;;
1957;SDS011;979;51.076;13.748;2023-02-24T23:51:41;26.00;;;24.50;;
1957;SDS011;979;51.076;13.748;2023-02-24T23:56:45;25.37;;;24.07;;
